createdAt,value
2023-03-07T00:00:55.161Z,34.7
2023-03-07T00:02:05.555Z,34.7
2023-03-07T00:03:15.948Z,34.7
2023-03-07T00:04:26.322Z,34.7
2023-03-07T00:05:36.719Z,34.7
2023-03-07T00:06:47.104Z,34.7
2023-03-07T00:07:57.499Z,34.6
2023-03-07T00:09:07.194Z,34.6
2023-03-07T00:10:16.848Z,34.6
2023-03-07T00:11:27.291Z,34.6
2023-03-07T00:12:37.643Z,34.6
2023-03-07T00:13:48.026Z,34.6
2023-03-07T00:14:58.421Z,34.6
2023-03-07T00:16:08.800Z,34.6
2023-03-07T00:17:19.181Z,34.6
2023-03-07T00:19:39.956Z,34.6
2023-03-07T00:20:50.363Z,34.6
2023-03-07T00:22:00.750Z,34.6
2023-03-07T00:23:11.138Z,34.6
2023-03-07T00:24:21.518Z,34.6
2023-03-07T00:26:42.302Z,34.6
2023-03-07T00:27:51.993Z,34.6
2023-03-07T00:29:01.655Z,34.6
2023-03-07T00:30:12.040Z,34.6
2023-03-07T00:31:22.435Z,34.6
2023-03-07T00:33:43.209Z,34.6
2023-03-07T00:34:53.601Z,34.6
2023-03-07T00:36:03.000Z,34.6
2023-03-07T00:37:14.386Z,34.6
2023-03-07T00:38:24.767Z,34.6
2023-03-07T00:39:35.162Z,34.6
2023-03-07T00:40:45.539Z,34.6
2023-03-07T00:41:55.926Z,34.6
2023-03-07T00:43:06.314Z,34.6
2023-03-07T00:44:15.973Z,34.6
2023-03-07T00:45:26.378Z,34.6
2023-03-07T00:46:36.759Z,34.6
2023-03-07T00:47:47.158Z,34.5
2023-03-07T00:48:57.527Z,34.6
2023-03-07T00:50:07.919Z,34.6
2023-03-07T00:51:18.307Z,34.5
2023-03-07T00:52:28.699Z,34.6
2023-03-07T00:54:48.792Z,34.5
2023-03-07T00:55:58.450Z,34.5
2023-03-07T00:57:08.828Z,34.5
2023-03-07T00:58:18.543Z,34.6
2023-03-07T00:59:28.188Z,34.5
2023-03-07T01:01:48.966Z,34.5
2023-03-07T01:02:59.370Z,34.6
2023-03-07T01:04:09.755Z,34.6
2023-03-07T01:05:20.141Z,34.5
2023-03-07T01:06:30.538Z,34.5
2023-03-07T01:07:40.966Z,34.6
2023-03-07T01:08:51.305Z,34.5
2023-03-07T01:10:01.705Z,34.5
2023-03-07T01:11:12.080Z,34.5
2023-03-07T01:12:22.464Z,34.5
2023-03-07T01:13:32.865Z,34.5
2023-03-07T01:14:42.511Z,34.6
2023-03-07T01:15:52.898Z,34.5
2023-03-07T01:17:03.307Z,34.5
2023-03-07T01:18:13.685Z,34.5
2023-03-07T01:19:24.068Z,34.5
2023-03-07T01:20:34.459Z,34.5
2023-03-07T01:21:44.903Z,34.5
2023-03-07T01:22:55.240Z,34.5
2023-03-07T01:24:04.946Z,34.5
2023-03-07T01:25:14.605Z,34.5
2023-03-07T01:26:24.979Z,34.5
2023-03-07T01:27:34.683Z,34.5
2023-03-07T01:29:55.457Z,34.5
2023-03-07T01:31:05.862Z,34.5
2023-03-07T01:32:16.235Z,34.5
2023-03-07T01:33:26.630Z,34.5
2023-03-07T01:34:37.022Z,34.5
2023-03-07T01:36:57.802Z,34.5
2023-03-07T01:38:08.183Z,34.5
2023-03-07T01:39:17.878Z,34.5
2023-03-07T01:40:28.268Z,34.5
2023-03-07T01:41:37.926Z,34.5
2023-03-07T01:43:58.708Z,34.5
2023-03-07T01:45:09.093Z,34.5
2023-03-07T01:46:19.497Z,34.5
2023-03-07T01:47:29.872Z,34.5
2023-03-07T01:48:40.256Z,34.5
2023-03-07T01:49:50.652Z,34.5
2023-03-07T01:51:01.051Z,34.5
2023-03-07T01:52:11.422Z,34.5
2023-03-07T01:53:21.832Z,34.5
2023-03-07T01:54:32.206Z,34.5
2023-03-07T01:55:42.603Z,34.5
2023-03-07T01:56:52.308Z,34.5
2023-03-07T01:58:02.646Z,34.5
2023-03-07T01:59:13.025Z,34.5
2023-03-07T02:00:23.416Z,34.5
2023-03-07T02:01:33.807Z,34.5
2023-03-07T02:02:44.206Z,34.5
2023-03-07T02:05:04.987Z,34.5
2023-03-07T02:06:15.365Z,34.5
2023-03-07T02:07:25.753Z,34.5
2023-03-07T02:08:35.458Z,34.5
2023-03-07T02:09:45.122Z,34.5
2023-03-07T02:12:05.918Z,34.5
2023-03-07T02:13:16.298Z,34.5
2023-03-07T02:14:26.705Z,34.5
2023-03-07T02:15:37.076Z,34.5
2023-03-07T02:16:47.465Z,34.4
2023-03-07T02:17:57.888Z,34.5
2023-03-07T02:19:08.243Z,34.5
2023-03-07T02:20:18.649Z,34.5
2023-03-07T02:21:29.031Z,34.5
2023-03-07T02:22:39.420Z,34.4
2023-03-07T02:23:49.812Z,34.4
2023-03-07T02:24:59.473Z,34.4
2023-03-07T02:26:09.857Z,34.5
2023-03-07T02:27:20.251Z,34.5
2023-03-07T02:28:30.637Z,34.5
2023-03-07T02:29:41.016Z,34.5
2023-03-07T02:30:51.411Z,34.5
2023-03-07T02:32:01.824Z,34.5
2023-03-07T02:33:12.186Z,34.5
2023-03-07T02:34:22.568Z,34.5
2023-03-07T02:35:32.966Z,34.5
2023-03-07T02:36:43.364Z,34.4
2023-03-07T02:37:53.737Z,34.4
2023-03-07T02:40:14.526Z,34.4
2023-03-07T02:41:24.182Z,34.4
2023-03-07T02:42:34.567Z,34.5
2023-03-07T02:43:44.951Z,34.4
2023-03-07T02:44:55.349Z,34.4
2023-03-07T02:47:16.120Z,34.4
2023-03-07T02:48:26.501Z,34.4
2023-03-07T02:49:36.906Z,34.4
2023-03-07T02:50:47.290Z,34.4
2023-03-07T02:51:57.669Z,34.4
2023-03-07T02:53:08.094Z,34.5
2023-03-07T02:54:18.462Z,34.5
2023-03-07T02:55:28.856Z,34.4
2023-03-07T02:56:38.511Z,34.4
2023-03-07T02:57:48.888Z,34.4
2023-03-07T02:58:59.291Z,34.4
2023-03-07T03:00:09.669Z,34.4
2023-03-07T03:01:20.049Z,34.4
2023-03-07T03:02:30.455Z,34.4
2023-03-07T03:03:40.845Z,34.5
2023-03-07T03:04:51.226Z,34.5
2023-03-07T03:06:01.617Z,34.4
2023-03-07T03:07:11.998Z,34.4
2023-03-07T03:08:22.393Z,34.4
2023-03-07T03:09:32.772Z,34.4
2023-03-07T03:10:43.166Z,34.4
2023-03-07T03:11:52.831Z,34.4
2023-03-07T03:13:03.222Z,34.4
2023-03-07T03:15:24.002Z,34.4
2023-03-07T03:16:34.381Z,34.4
2023-03-07T03:17:44.761Z,34.4
2023-03-07T03:18:55.162Z,34.4
2023-03-07T03:20:05.555Z,34.4
2023-03-07T03:22:26.322Z,34.4
2023-03-07T03:23:36.718Z,34.4
2023-03-07T03:24:47.098Z,34.4
2023-03-07T03:25:57.489Z,34.4
2023-03-07T03:27:07.145Z,34.4
2023-03-07T03:29:27.929Z,34.4
2023-03-07T03:30:37.619Z,34.4
2023-03-07T03:31:47.294Z,34.4
2023-03-07T03:32:57.668Z,34.4
2023-03-07T03:34:08.063Z,34.4
2023-03-07T03:35:18.447Z,34.4
2023-03-07T03:36:28.832Z,34.4
2023-03-07T03:37:39.238Z,34.4
2023-03-07T03:38:49.620Z,34.4
2023-03-07T03:40:00.000Z,34.5
2023-03-07T03:41:10.402Z,34.5
2023-03-07T03:42:20.814Z,34.5
2023-03-07T03:43:30.490Z,34.5
2023-03-07T03:45:50.539Z,34.4
2023-03-07T03:47:00.916Z,34.4
2023-03-07T03:48:11.310Z,34.4
2023-03-07T03:50:32.090Z,34.4
2023-03-07T03:51:42.482Z,34.4
2023-03-07T03:52:52.865Z,34.4
2023-03-07T03:54:03.260Z,34.4
2023-03-07T03:55:13.636Z,34.4
2023-03-07T03:57:34.419Z,34.4
2023-03-07T03:58:44.814Z,34.4
2023-03-07T04:01:04.891Z,34.4
2023-03-07T04:02:14.603Z,34.5
2023-03-07T04:04:34.644Z,34.5
2023-03-07T04:05:45.027Z,34.5
2023-03-07T04:06:55.421Z,34.5
2023-03-07T04:08:05.802Z,34.4
2023-03-07T04:09:16.189Z,34.5
2023-03-07T04:10:26.576Z,34.4
2023-03-07T04:11:36.968Z,34.4
2023-03-07T04:12:47.371Z,34.5
2023-03-07T04:13:57.743Z,34.4
2023-03-07T04:15:08.139Z,34.5
2023-03-07T04:16:17.838Z,34.5
2023-03-07T04:17:27.496Z,34.5
2023-03-07T04:18:37.888Z,34.5
2023-03-07T04:19:48.266Z,34.5
2023-03-07T04:20:58.659Z,34.4
2023-03-07T04:22:09.057Z,34.4
2023-03-07T04:23:19.450Z,34.4
2023-03-07T04:25:40.217Z,34.4
2023-03-07T04:26:50.602Z,34.5
2023-03-07T04:28:00.994Z,34.5
2023-03-07T04:29:11.384Z,34.5
2023-03-07T04:30:21.772Z,34.5
2023-03-07T04:32:42.549Z,34.4
2023-03-07T04:33:52.263Z,34.4
2023-03-07T04:35:01.902Z,34.5
2023-03-07T04:36:12.294Z,34.4
2023-03-07T04:37:22.692Z,34.4
2023-03-07T04:38:33.111Z,34.4
2023-03-07T04:39:43.472Z,34.4
2023-03-07T04:40:53.847Z,34.4
2023-03-07T04:42:04.242Z,34.4
2023-03-07T04:43:14.627Z,34.4
2023-03-07T04:44:25.027Z,34.4
2023-03-07T04:45:35.422Z,34.4
2023-03-07T04:46:45.116Z,34.4
2023-03-07T04:47:55.494Z,34.4
2023-03-07T04:49:05.150Z,34.5
2023-03-07T04:50:15.557Z,34.5
2023-03-07T04:51:25.936Z,34.5
2023-03-07T04:52:36.332Z,34.4
2023-03-07T04:53:46.713Z,34.4
2023-03-07T04:54:57.105Z,34.4
2023-03-07T04:56:07.498Z,34.4
2023-03-07T04:57:17.887Z,34.4
2023-03-07T04:58:28.264Z,34.4
2023-03-07T05:00:49.048Z,34.4
2023-03-07T05:01:59.431Z,34.4
2023-03-07T05:03:09.816Z,34.4
2023-03-07T05:04:20.208Z,34.4
2023-03-07T05:05:29.882Z,34.4
2023-03-07T05:07:50.642Z,34.4
2023-03-07T05:09:00.356Z,34.4
2023-03-07T05:10:10.011Z,34.5
2023-03-07T05:11:20.388Z,34.5
2023-03-07T05:12:30.777Z,34.5
2023-03-07T05:13:41.207Z,34.5
2023-03-07T05:14:51.560Z,34.4
2023-03-07T05:16:01.962Z,34.4
2023-03-07T05:17:12.340Z,34.5
2023-03-07T05:18:22.724Z,34.4
2023-03-07T05:19:33.118Z,34.4
2023-03-07T05:20:43.510Z,34.4
2023-03-07T05:21:53.196Z,34.4
2023-03-07T05:23:02.902Z,34.4
2023-03-07T05:24:13.287Z,34.5
2023-03-07T05:25:23.684Z,34.5
2023-03-07T05:26:34.068Z,34.5
2023-03-07T05:27:44.494Z,34.5
2023-03-07T05:28:54.858Z,34.5
2023-03-07T05:30:05.235Z,34.5
2023-03-07T05:31:15.623Z,34.5
2023-03-07T05:32:26.020Z,34.5
2023-03-07T05:33:36.398Z,34.5
2023-03-07T05:34:46.792Z,34.5
2023-03-07T05:35:57.189Z,34.5
2023-03-07T05:37:07.563Z,34.5
2023-03-07T05:38:17.220Z,34.5
2023-03-07T05:39:27.616Z,34.4
2023-03-07T05:40:38.005Z,34.4
2023-03-07T05:41:48.431Z,34.4
2023-03-07T05:42:58.790Z,34.4
2023-03-07T05:44:09.167Z,34.5
2023-03-07T05:45:19.558Z,34.5
2023-03-07T05:46:29.961Z,34.5
2023-03-07T05:47:40.345Z,34.5
2023-03-07T05:48:50.765Z,34.5
2023-03-07T05:50:01.118Z,34.5
2023-03-07T05:51:11.505Z,34.5
2023-03-07T05:52:21.902Z,34.4
2023-03-07T05:53:31.550Z,34.5
2023-03-07T05:54:41.945Z,34.5
2023-03-07T05:55:52.323Z,34.5
2023-03-07T05:57:02.727Z,34.5
2023-03-07T05:58:13.105Z,34.5
2023-03-07T05:59:23.499Z,34.5
2023-03-07T06:00:33.895Z,34.5
2023-03-07T06:01:44.270Z,34.5
2023-03-07T06:02:54.665Z,34.5
2023-03-07T06:04:05.049Z,34.5
2023-03-07T06:05:15.450Z,34.5
2023-03-07T06:06:25.826Z,34.5
2023-03-07T06:07:36.225Z,34.5
2023-03-07T06:08:45.868Z,34.5
2023-03-07T06:09:56.257Z,34.5
2023-03-07T06:11:06.654Z,34.5
2023-03-07T06:12:17.051Z,34.5
2023-03-07T06:13:27.444Z,34.5
2023-03-07T06:14:37.827Z,34.5
2023-03-07T06:15:48.213Z,34.5
2023-03-07T06:18:08.989Z,34.5
2023-03-07T06:19:19.378Z,34.4
2023-03-07T06:20:29.762Z,34.5
2023-03-07T06:21:40.166Z,34.5
2023-03-07T06:25:11.313Z,34.5
2023-03-07T06:26:21.016Z,34.5
2023-03-07T06:27:30.684Z,34.5
2023-03-07T06:28:41.079Z,34.5
2023-03-07T06:29:51.456Z,34.6
2023-03-07T06:31:01.844Z,34.5
2023-03-07T06:32:12.229Z,34.5
2023-03-07T06:33:22.632Z,34.5
2023-03-07T06:34:33.013Z,34.5
2023-03-07T06:35:43.408Z,34.6
2023-03-07T06:36:53.786Z,34.6
2023-03-07T06:38:04.184Z,34.6
2023-03-07T06:39:13.871Z,34.6
2023-03-07T06:40:23.542Z,34.6
2023-03-07T06:41:33.931Z,34.6
2023-03-07T06:42:44.305Z,34.6
2023-03-07T06:43:54.694Z,34.6
2023-03-07T06:46:15.488Z,34.6
2023-03-07T06:47:25.870Z,34.6
2023-03-07T06:49:46.640Z,34.7
2023-03-07T06:50:57.047Z,34.8
2023-03-07T06:52:07.436Z,34.9
2023-03-07T06:53:17.807Z,34.9
2023-03-07T06:54:27.508Z,35
2023-03-07T06:55:37.172Z,35
2023-03-07T06:56:47.563Z,35.1
2023-03-07T06:57:57.945Z,35.1
2023-03-07T07:00:18.718Z,35.2
2023-03-07T07:01:29.109Z,35.2
2023-03-07T07:02:39.511Z,35.2
2023-03-07T07:03:49.885Z,35.2
2023-03-07T07:05:00.282Z,35.3
2023-03-07T07:06:10.667Z,35.2
2023-03-07T07:07:21.059Z,35.3
2023-03-07T07:08:31.451Z,35.3
2023-03-07T07:09:41.839Z,35.3
2023-03-07T07:10:52.232Z,35.3
2023-03-07T07:12:01.892Z,35.3
2023-03-07T07:13:12.313Z,35.3
2023-03-07T07:14:22.657Z,35.2
2023-03-07T07:15:33.053Z,35.3
2023-03-07T07:16:43.437Z,35.3
2023-03-07T07:17:53.836Z,35.3
2023-03-07T07:19:04.221Z,35.2
2023-03-07T07:20:13.915Z,35.3
2023-03-07T07:21:23.576Z,35.3
2023-03-07T07:22:33.973Z,35.3
2023-03-07T07:23:44.344Z,35.2
2023-03-07T07:24:54.749Z,35.2
2023-03-07T07:26:05.132Z,35.3
2023-03-07T07:28:25.898Z,35.2
2023-03-07T07:29:36.307Z,35.2
2023-03-07T07:30:46.689Z,35.2
2023-03-07T07:31:57.067Z,35.2
2023-03-07T07:33:07.463Z,35.2
2023-03-07T07:35:28.242Z,35.2
2023-03-07T07:36:37.943Z,35.2
2023-03-07T07:37:47.607Z,35.2
2023-03-07T07:38:57.994Z,35.2
2023-03-07T07:40:08.382Z,35.1
2023-03-07T07:41:18.763Z,35.1
2023-03-07T07:42:29.153Z,35.1
2023-03-07T07:43:39.535Z,35.1
2023-03-07T07:44:49.934Z,35.1
2023-03-07T07:46:00.329Z,35.1
2023-03-07T07:47:10.701Z,35.1
2023-03-07T07:48:21.100Z,35.1
2023-03-07T07:49:30.804Z,35.1
2023-03-07T07:50:40.458Z,35.1
2023-03-07T07:51:50.846Z,35.2
2023-03-07T07:53:01.236Z,35.1
2023-03-07T07:54:11.623Z,35.1
2023-03-07T07:55:22.005Z,35.1
2023-03-07T07:56:32.405Z,35.2
2023-03-07T07:57:42.781Z,35.4
2023-03-07T07:58:53.182Z,35.4
2023-03-07T08:02:24.340Z,35.6
2023-03-07T08:03:34.742Z,35.6
2023-03-07T08:04:45.116Z,35.7
2023-03-07T08:07:05.207Z,35.9
2023-03-07T08:08:14.909Z,35.9
2023-03-07T08:10:35.680Z,36.2
2023-03-07T08:11:46.066Z,36.3
2023-03-07T08:14:06.857Z,36.5
2023-03-07T08:15:17.238Z,36.3
2023-03-07T08:16:26.898Z,36.4
2023-03-07T08:18:47.697Z,36.5
2023-03-07T08:19:58.077Z,36.7
2023-03-07T08:21:08.460Z,36.5
2023-03-07T08:22:18.854Z,36.8
2023-03-07T08:23:29.237Z,36.8
2023-03-07T08:27:00.408Z,36.7
2023-03-07T08:30:30.872Z,36.9
2023-03-07T08:31:40.586Z,36.9
2023-03-07T08:32:50.954Z,36.8
2023-03-07T08:35:11.003Z,36.9
2023-03-07T08:36:21.410Z,36.9
2023-03-07T08:37:31.794Z,37
2023-03-07T08:38:42.177Z,37.2
2023-03-07T08:48:05.290Z,36.9
2023-03-07T08:51:36.448Z,36.8
2023-03-07T08:53:56.508Z,36.6
2023-03-07T08:55:06.886Z,36.6
2023-03-07T08:56:17.292Z,36.6
2023-03-07T08:58:38.065Z,36.7
2023-03-07T08:59:48.448Z,36.7
2023-03-07T09:03:19.614Z,36.6
2023-03-07T09:05:40.399Z,36.6
2023-03-07T09:06:50.826Z,36.6
2023-03-07T09:08:01.168Z,36.6
2023-03-07T09:12:42.006Z,36.6
2023-03-07T09:15:02.764Z,36.5
2023-03-07T09:24:25.886Z,36.6
2023-03-07T09:26:45.966Z,36.6
2023-03-07T09:27:55.675Z,36.6
2023-03-07T09:29:06.059Z,36.6
2023-03-07T09:33:47.610Z,36.6
2023-03-07T09:40:49.944Z,36.6
2023-03-07T09:42:00.348Z,36.7
2023-03-07T09:44:21.119Z,36.7
2023-03-07T09:46:41.177Z,36.7
2023-03-07T09:47:51.551Z,36.7
2023-03-07T09:49:01.947Z,36.7
2023-03-07T09:52:33.107Z,36.7
2023-03-07T09:56:04.287Z,36.8
2023-03-07T09:57:14.671Z,36.8
2023-03-07T09:58:25.066Z,36.8
2023-03-07T10:00:45.826Z,36.7
2023-03-07T10:01:55.492Z,36.9
2023-03-07T10:05:26.671Z,37.1
2023-03-07T10:08:57.835Z,37.1
2023-03-07T10:10:08.205Z,37.2
2023-03-07T10:12:28.984Z,37.2
2023-03-07T10:13:39.370Z,37.2
2023-03-07T10:16:00.155Z,37.4
2023-03-07T10:18:20.201Z,37.4
2023-03-07T10:19:30.597Z,37.4
2023-03-07T10:23:01.751Z,37.4
2023-03-07T10:24:12.197Z,37.4
2023-03-07T10:25:22.542Z,37.4
2023-03-07T10:27:43.308Z,37.4
2023-03-07T10:28:53.710Z,37.4
2023-03-07T10:30:04.085Z,37.4
2023-03-07T10:32:24.865Z,37.4
2023-03-07T10:33:35.261Z,37.4
2023-03-07T10:35:55.314Z,37.4
2023-03-07T10:37:05.687Z,37.4
2023-03-07T10:38:16.081Z,37.5
2023-03-07T10:40:36.863Z,37.5
2023-03-07T10:41:47.260Z,37.5
2023-03-07T10:42:57.632Z,37.6
2023-03-07T10:44:08.019Z,37.6
2023-03-07T10:45:18.418Z,37.6
2023-03-07T10:46:28.810Z,37.8
2023-03-07T10:48:49.576Z,37.8
2023-03-07T10:49:59.972Z,37.9
2023-03-07T10:51:10.367Z,37.8
2023-03-07T10:53:30.459Z,38
2023-03-07T10:54:40.807Z,38
2023-03-07T10:57:01.575Z,37.9
2023-03-07T10:58:12.015Z,37.9
2023-03-07T10:59:22.351Z,37.9
2023-03-07T11:01:43.143Z,38
2023-03-07T11:02:53.526Z,37.9
2023-03-07T11:04:03.913Z,37.9
2023-03-07T11:05:14.349Z,38.1
2023-03-07T11:06:24.692Z,38
2023-03-07T11:07:35.080Z,38.1
2023-03-07T11:08:45.458Z,38.2
2023-03-07T11:09:55.864Z,38.3
2023-03-07T11:11:06.235Z,38.6
2023-03-07T11:12:15.898Z,38.8
2023-03-07T11:13:26.284Z,38.9
2023-03-07T11:14:36.730Z,38.8
2023-03-07T11:15:47.072Z,38.9
2023-03-07T11:16:57.447Z,38.9
2023-03-07T11:18:07.845Z,38.9
2023-03-07T11:19:18.286Z,39
2023-03-07T11:20:28.633Z,38.9
2023-03-07T11:21:39.019Z,39
2023-03-07T11:22:49.453Z,39
2023-03-07T11:23:59.098Z,39
2023-03-07T11:25:08.769Z,39.1
2023-03-07T11:26:19.147Z,39
2023-03-07T11:27:29.543Z,39
2023-03-07T11:28:39.922Z,39.1
2023-03-07T11:29:50.305Z,39
2023-03-07T11:31:00.755Z,39.1
2023-03-07T11:32:11.085Z,39.1
2023-03-07T11:33:21.484Z,39.1
2023-03-07T11:34:31.879Z,38.9
2023-03-07T11:35:42.256Z,39
2023-03-07T11:36:51.968Z,39
2023-03-07T11:39:12.010Z,39
2023-03-07T11:40:22.445Z,39
2023-03-07T11:41:32.788Z,38.9
2023-03-07T11:42:43.176Z,38.9
2023-03-07T11:43:53.571Z,39
2023-03-07T11:45:03.942Z,38.9
2023-03-07T11:47:24.727Z,38.9
2023-03-07T11:48:35.123Z,38.9
2023-03-07T11:49:45.509Z,38.9
2023-03-07T11:52:06.282Z,38.9
2023-03-07T11:53:16.664Z,38.9
2023-03-07T11:54:26.379Z,39
2023-03-07T11:56:47.201Z,39
2023-03-07T12:00:17.592Z,38.8
2023-03-07T12:01:27.970Z,38.6
2023-03-07T12:02:38.362Z,38.9
2023-03-07T12:04:59.139Z,38.8
2023-03-07T12:07:19.919Z,39
2023-03-07T12:08:30.309Z,39.1
2023-03-07T12:09:40.701Z,39
2023-03-07T12:10:51.090Z,39
2023-03-07T12:12:01.471Z,39
2023-03-07T12:13:11.867Z,39
2023-03-07T12:14:22.250Z,39
2023-03-07T12:15:32.640Z,39
2023-03-07T12:16:42.345Z,39
2023-03-07T12:17:52.733Z,39.1
2023-03-07T12:21:23.888Z,39.1
2023-03-07T12:22:34.280Z,39.1
2023-03-07T12:26:05.447Z,39
2023-03-07T12:27:15.835Z,39.1
2023-03-07T12:29:36.614Z,39
2023-03-07T12:30:47.012Z,39
2023-03-07T12:31:57.393Z,38.8
2023-03-07T12:33:07.779Z,39
2023-03-07T12:34:18.174Z,38.5
2023-03-07T12:35:28.556Z,39
2023-03-07T12:36:38.958Z,39.5
2023-03-07T12:37:49.338Z,39.8
2023-03-07T12:38:59.726Z,40.1
2023-03-07T12:40:09.395Z,40.1
2023-03-07T12:41:19.782Z,39.8
2023-03-07T12:42:30.175Z,39.9
2023-03-07T12:43:40.607Z,39.7
2023-03-07T12:44:50.942Z,39.8
2023-03-07T12:46:01.326Z,39.8
2023-03-07T12:47:11.711Z,39.9
2023-03-07T12:48:22.108Z,39.4
2023-03-07T12:49:32.492Z,39.4
2023-03-07T12:50:42.878Z,39.2
2023-03-07T12:51:53.286Z,39
2023-03-07T12:53:02.974Z,38.9
2023-03-07T12:56:33.413Z,38.7
2023-03-07T12:57:43.798Z,38.7
2023-03-07T12:58:54.197Z,38.7
2023-03-07T13:00:04.578Z,38.6
2023-03-07T13:01:14.963Z,38.4
2023-03-07T13:02:25.354Z,38.6
2023-03-07T13:03:35.742Z,38.7
2023-03-07T13:04:46.188Z,38.7
2023-03-07T13:05:56.515Z,38.8
2023-03-07T13:07:06.921Z,38.8
2023-03-07T13:08:17.355Z,38.8
2023-03-07T13:09:27.008Z,38.8
2023-03-07T13:10:36.657Z,38.8
2023-03-07T13:11:47.051Z,38.8
2023-03-07T13:12:57.435Z,38.8
2023-03-07T13:14:07.815Z,38.7
2023-03-07T13:15:18.209Z,38.8
2023-03-07T13:16:28.600Z,38.8
2023-03-07T13:17:38.999Z,38.8
2023-03-07T13:18:49.434Z,38.8
2023-03-07T13:19:59.761Z,38.8
2023-03-07T13:21:10.159Z,38.8
2023-03-07T13:22:20.556Z,38.8
2023-03-07T13:23:30.925Z,38.8
2023-03-07T13:24:41.315Z,38.9
2023-03-07T13:25:51.019Z,38.9
2023-03-07T13:27:01.418Z,38.8
2023-03-07T13:28:11.803Z,38.8
2023-03-07T13:29:22.191Z,38.9
2023-03-07T13:30:32.572Z,38.9
2023-03-07T13:31:42.961Z,38.9
2023-03-07T13:32:53.355Z,38.9
2023-03-07T13:34:03.750Z,38.9
2023-03-07T13:35:14.133Z,38.9
2023-03-07T13:36:24.516Z,38.9
2023-03-07T13:37:34.923Z,38.9
2023-03-07T13:38:45.306Z,38.9
2023-03-07T13:39:55.746Z,38.9
2023-03-07T13:41:06.078Z,38.9
2023-03-07T13:42:16.468Z,38.9
2023-03-07T13:43:26.863Z,38.9
2023-03-07T13:44:36.513Z,38.9
2023-03-07T13:45:46.901Z,39
2023-03-07T13:46:57.293Z,38.9
2023-03-07T13:48:07.686Z,38.9
2023-03-07T13:49:18.072Z,38.9
2023-03-07T13:50:28.455Z,38.9
2023-03-07T13:51:38.856Z,38.9
2023-03-07T13:52:49.234Z,39
2023-03-07T13:53:59.620Z,39
2023-03-07T13:55:10.016Z,38.9
2023-03-07T13:56:20.406Z,38.9
2023-03-07T13:57:30.792Z,38.9
2023-03-07T13:58:41.184Z,38.9
2023-03-07T13:59:50.835Z,38.9
2023-03-07T14:01:01.227Z,38.9
2023-03-07T14:02:11.627Z,38.9
2023-03-07T14:03:22.001Z,38.9
2023-03-07T14:04:32.390Z,38.9
2023-03-07T14:06:53.169Z,38.9
2023-03-07T14:08:03.555Z,38.9
2023-03-07T14:09:13.962Z,38.9
2023-03-07T14:10:24.337Z,38.9
2023-03-07T14:11:34.722Z,39
2023-03-07T14:12:45.125Z,38.9
2023-03-07T14:13:55.500Z,38.9
2023-03-07T14:15:05.164Z,38.9
2023-03-07T14:16:15.556Z,38.9
2023-03-07T14:17:25.945Z,38.9
2023-03-07T14:18:36.335Z,38.9
2023-03-07T14:19:46.779Z,38.9
2023-03-07T14:20:57.112Z,38.8
2023-03-07T14:22:07.492Z,38.9
2023-03-07T14:23:17.879Z,38.8
2023-03-07T14:24:28.277Z,39
2023-03-07T14:25:38.662Z,39
2023-03-07T14:27:59.452Z,39.1
2023-03-07T14:29:09.890Z,39.2
2023-03-07T14:30:19.486Z,39.2
2023-03-07T14:31:29.876Z,39.2
2023-03-07T14:32:40.267Z,39.2
2023-03-07T14:33:50.660Z,39.2
2023-03-07T14:35:01.041Z,39.2
2023-03-07T14:36:11.434Z,39.3
2023-03-07T14:37:21.882Z,39.3
2023-03-07T14:38:32.215Z,39.3
2023-03-07T14:39:42.594Z,39.3
2023-03-07T14:40:52.985Z,39.3
2023-03-07T14:42:03.370Z,39.3
2023-03-07T14:43:13.773Z,39.3
2023-03-07T14:44:24.168Z,39.3
2023-03-07T14:45:34.540Z,39.3
2023-03-07T14:47:54.596Z,39.3
2023-03-07T14:49:04.979Z,39.2
2023-03-07T14:50:15.430Z,39.3
2023-03-07T14:51:25.768Z,39.2
2023-03-07T14:52:36.157Z,39.1
2023-03-07T14:53:46.531Z,39.1
2023-03-07T14:54:56.939Z,39
2023-03-07T14:57:17.707Z,39.3
2023-03-07T14:58:28.105Z,39.3
2023-03-07T14:59:38.480Z,39.2
2023-03-07T15:01:59.268Z,39.2
2023-03-07T15:03:08.965Z,39.2
2023-03-07T15:04:19.408Z,39.2
2023-03-07T15:05:29.017Z,39.1
2023-03-07T15:06:39.388Z,39.1
2023-03-07T15:07:49.779Z,39
2023-03-07T15:09:00.183Z,39.1
2023-03-07T15:10:10.574Z,39
2023-03-07T15:11:21.010Z,39
2023-03-07T15:12:31.343Z,39
2023-03-07T15:13:41.728Z,39
2023-03-07T15:14:52.125Z,39
2023-03-07T15:16:01.823Z,39
2023-03-07T15:17:12.206Z,39
2023-03-07T15:18:22.588Z,39
2023-03-07T15:19:32.989Z,39
2023-03-07T15:20:42.642Z,39
2023-03-07T15:21:53.038Z,39.1
2023-03-07T15:24:13.810Z,39
2023-03-07T15:25:24.257Z,39
2023-03-07T15:26:34.577Z,39
2023-03-07T15:27:44.969Z,39
2023-03-07T15:28:55.361Z,39.1
2023-03-07T15:30:05.752Z,39.1
2023-03-07T15:31:16.149Z,39.1
2023-03-07T15:32:26.524Z,39.1
2023-03-07T15:33:36.919Z,39.1
2023-03-07T15:34:47.315Z,39.1
2023-03-07T15:35:56.973Z,39.1
2023-03-07T15:37:07.361Z,39.1
2023-03-07T15:38:17.740Z,39.1
2023-03-07T15:39:28.194Z,39
2023-03-07T15:40:38.533Z,39.1
2023-03-07T15:41:48.920Z,39.1
2023-03-07T15:42:59.291Z,39.1
2023-03-07T15:44:09.684Z,39.1
2023-03-07T15:45:20.082Z,39.1
2023-03-07T15:46:30.528Z,39.1
2023-03-07T15:47:40.867Z,39.1
2023-03-07T15:48:51.238Z,39.1
2023-03-07T15:50:01.629Z,39.1
2023-03-07T15:51:12.033Z,39.1
2023-03-07T15:52:22.473Z,39.1
2023-03-07T15:53:32.074Z,39.1
2023-03-07T15:54:42.461Z,39.1
2023-03-07T15:57:03.235Z,39.2
2023-03-07T15:58:13.630Z,39.2
2023-03-07T15:59:24.025Z,39.2
2023-03-07T16:00:34.409Z,39.2
2023-03-07T16:01:44.854Z,39.2
2023-03-07T16:02:55.190Z,39.2
2023-03-07T16:04:05.562Z,39.2
2023-03-07T16:05:15.949Z,39.2
2023-03-07T16:06:26.000Z,39.2
2023-03-07T16:07:36.746Z,39.2
2023-03-07T16:08:46.400Z,39.2
2023-03-07T16:09:56.792Z,39.3
2023-03-07T16:11:07.179Z,39.2
2023-03-07T16:12:17.566Z,39.3
2023-03-07T16:13:27.948Z,39.3
2023-03-07T16:14:38.334Z,39.3
2023-03-07T16:15:48.731Z,39.3
2023-03-07T16:16:59.125Z,39.3
2023-03-07T16:18:09.504Z,39.4
2023-03-07T16:19:19.890Z,39.4
2023-03-07T16:20:30.286Z,39.4
2023-03-07T16:21:40.671Z,39.4
2023-03-07T16:22:51.054Z,39.4
2023-03-07T16:24:01.455Z,39.4
2023-03-07T16:25:11.833Z,39.4
2023-03-07T16:26:22.225Z,39.4
2023-03-07T16:27:31.882Z,39.4
2023-03-07T16:28:42.285Z,39.4
2023-03-07T16:31:03.116Z,39.4
2023-03-07T16:32:13.448Z,39.4
2023-03-07T16:33:23.833Z,39.4
2023-03-07T16:34:34.221Z,39.4
2023-03-07T16:35:44.602Z,39.5
2023-03-07T16:36:54.997Z,39.5
2023-03-07T16:38:05.378Z,39.5
2023-03-07T16:39:15.775Z,39.4
2023-03-07T16:41:36.558Z,39.5
2023-03-07T16:42:46.953Z,39.5
2023-03-07T16:43:56.610Z,39.5
2023-03-07T16:45:06.992Z,39.5
2023-03-07T16:46:17.373Z,39.5
2023-03-07T16:47:27.760Z,39.5
2023-03-07T16:48:38.156Z,39.5
2023-03-07T16:49:48.608Z,39.5
2023-03-07T16:50:58.942Z,39.5
2023-03-07T16:52:09.315Z,39.5
2023-03-07T16:53:19.711Z,39.5
2023-03-07T16:54:30.109Z,39.5
2023-03-07T16:55:40.552Z,39.5
2023-03-07T16:56:50.879Z,39.5
2023-03-07T16:58:01.272Z,39.5
2023-03-07T16:59:11.646Z,39.5
2023-03-07T17:00:22.041Z,39.5
2023-03-07T17:01:31.695Z,39.5
2023-03-07T17:02:42.103Z,39.5
2023-03-07T17:03:52.480Z,39.4
2023-03-07T17:05:02.869Z,39.4
2023-03-07T17:06:13.256Z,39.4
2023-03-07T17:08:34.046Z,39.5
2023-03-07T17:09:44.430Z,39.4
2023-03-07T17:10:54.812Z,39.4
2023-03-07T17:13:15.655Z,39.4
2023-03-07T17:16:46.822Z,39.4
2023-03-07T17:17:56.466Z,39.4
2023-03-07T17:19:06.106Z,39.4
2023-03-07T17:22:37.286Z,39.5
2023-03-07T17:23:46.973Z,39.4
2023-03-07T17:24:57.434Z,39.5
2023-03-07T17:26:07.757Z,39.5
2023-03-07T17:27:18.153Z,39.6
2023-03-07T17:28:28.539Z,39.5
2023-03-07T17:29:38.930Z,39.5
2023-03-07T17:30:49.312Z,39.5
2023-03-07T17:31:59.767Z,39.5
2023-03-07T17:33:09.402Z,39.5
2023-03-07T17:34:19.058Z,39.5
2023-03-07T17:35:29.448Z,39.5
2023-03-07T17:37:50.220Z,39.6
2023-03-07T17:39:00.613Z,39.5
2023-03-07T17:40:11.009Z,39.5
2023-03-07T17:42:31.780Z,39.5
2023-03-07T17:46:03.014Z,39.6
2023-03-07T17:47:13.402Z,39.6
2023-03-07T17:48:23.727Z,39.6
2023-03-07T17:50:43.783Z,39.5
2023-03-07T17:51:54.168Z,39.6
2023-03-07T17:53:04.552Z,39.6
2023-03-07T17:55:25.321Z,39.6
2023-03-07T17:56:35.711Z,39.6
2023-03-07T17:58:56.486Z,39.6
2023-03-07T18:00:06.950Z,39.6
2023-03-07T18:01:17.268Z,39.6
2023-03-07T18:03:38.051Z,39.6
2023-03-07T18:04:47.716Z,39.6
2023-03-07T18:07:08.552Z,39.6
2023-03-07T18:09:29.275Z,39.6
2023-03-07T18:11:50.049Z,39.6
2023-03-07T18:13:00.428Z,39.6
2023-03-07T18:14:10.822Z,39.6
2023-03-07T18:16:31.602Z,39.6
2023-03-07T18:17:41.978Z,39.6
2023-03-07T18:21:13.219Z,39.6
2023-03-07T18:22:22.819Z,39.5
2023-03-07T18:24:43.580Z,39.6
2023-03-07T18:25:53.986Z,39.6
2023-03-07T18:28:14.756Z,39.6
2023-03-07T18:29:25.145Z,39.6
2023-03-07T18:30:35.542Z,39.6
2023-03-07T18:32:56.304Z,39.6
2023-03-07T18:34:06.689Z,39.6